sensor_id;sensor_type;location;lat;lon;timestamp;P1;durP1;ratioP1;P2;durP2;ratioP2
72408;SDS011;60402;48.082;11.628;2022-08-24T00:01:34;5.85;;;3.10;;
72408;SDS011;60402;48.082;11.628;2022-08-24T00:03:59;5.45;;;3.05;;
72408;SDS011;60402;48.082;11.628;2022-08-24T00:06:24;5.35;;;3.15;;
72408;SDS011;60402;48.082;11.628;2022-08-24T00:08:51;4.90;;;2.72;;
72408;SDS011;60402;48.082;11.628;2022-08-24T00:11:18;6.03;;;3.10;;
72408;SDS011;60402;48.082;11.628;2022-08-24T00:13:44;5.05;;;3.10;;
72408;SDS011;60402;48.082;11.628;2022-08-24T00:16:10;6.63;;;3.30;;
72408;SDS011;60402;48.082;11.628;2022-08-24T00:18:36;4.80;;;2.97;;
72408;SDS011;60402;48.082;11.628;2022-08-24T00:21:03;5.70;;;3.42;;
72408;SDS011;60402;48.082;11.628;2022-08-24T00:23:29;5.75;;;3.40;;
72408;SDS011;60402;48.082;11.628;2022-08-24T00:25:55;5.65;;;3.47;;
72408;SDS011;60402;48.082;11.628;2022-08-24T00:28:20;6.15;;;3.13;;
72408;SDS011;60402;48.082;11.628;2022-08-24T00:30:46;6.15;;;3.05;;
72408;SDS011;60402;48.082;11.628;2022-08-24T00:33:11;5.75;;;3.42;;
72408;SDS011;60402;48.082;11.628;2022-08-24T00:35:37;5.40;;;3.20;;
72408;SDS011;60402;48.082;11.628;2022-08-24T00:38:02;6.10;;;3.60;;
72408;SDS011;60402;48.082;11.628;2022-08-24T00:40:36;5.80;;;3.20;;
72408;SDS011;60402;48.082;11.628;2022-08-24T00:43:06;6.18;;;3.15;;
72408;SDS011;60402;48.082;11.628;2022-08-24T00:45:36;5.40;;;3.45;;
72408;SDS011;60402;48.082;11.628;2022-08-24T00:48:10;5.88;;;3.40;;
72408;SDS011;60402;48.082;11.628;2022-08-24T00:50:42;5.93;;;3.08;;
72408;SDS011;60402;48.082;11.628;2022-08-24T00:53:15;5.93;;;3.22;;
72408;SDS011;60402;48.082;11.628;2022-08-24T00:58:16;5.22;;;2.90;;
72408;SDS011;60402;48.082;11.628;2022-08-24T01:00:47;5.93;;;3.72;;
72408;SDS011;60402;48.082;11.628;2022-08-24T01:03:17;8.00;;;3.97;;
72408;SDS011;60402;48.082;11.628;2022-08-24T01:05:42;6.70;;;3.38;;
72408;SDS011;60402;48.082;11.628;2022-08-24T01:08:09;5.50;;;3.50;;
72408;SDS011;60402;48.082;11.628;2022-08-24T01:10:40;7.95;;;3.83;;
72408;SDS011;60402;48.082;11.628;2022-08-24T01:13:08;5.90;;;3.63;;
72408;SDS011;60402;48.082;11.628;2022-08-24T01:15:38;7.68;;;3.60;;
72408;SDS011;60402;48.082;11.628;2022-08-24T01:18:07;8.52;;;3.58;;
72408;SDS011;60402;48.082;11.628;2022-08-24T01:21:11;7.97;;;3.70;;
72408;SDS011;60402;48.082;11.628;2022-08-24T01:23:44;6.53;;;3.60;;
72408;SDS011;60402;48.082;11.628;2022-08-24T01:26:16;7.28;;;3.50;;
72408;SDS011;60402;48.082;11.628;2022-08-24T01:28:48;8.23;;;3.75;;
72408;SDS011;60402;48.082;11.628;2022-08-24T01:31:21;5.88;;;3.58;;
72408;SDS011;60402;48.082;11.628;2022-08-24T01:33:59;5.90;;;3.40;;
72408;SDS011;60402;48.082;11.628;2022-08-24T01:39:36;6.32;;;3.60;;
72408;SDS011;60402;48.082;11.628;2022-08-24T01:42:17;6.05;;;3.42;;
72408;SDS011;60402;48.082;11.628;2022-08-24T01:47:36;6.65;;;3.53;;
72408;SDS011;60402;48.082;11.628;2022-08-24T01:50:04;7.07;;;3.80;;
72408;SDS011;60402;48.082;11.628;2022-08-24T01:52:56;6.63;;;3.33;;
72408;SDS011;60402;48.082;11.628;2022-08-24T01:55:36;6.20;;;3.50;;
72408;SDS011;60402;48.082;11.628;2022-08-24T01:58:38;5.90;;;3.30;;
72408;SDS011;60402;48.082;11.628;2022-08-24T02:01:17;6.63;;;4.03;;
72408;SDS011;60402;48.082;11.628;2022-08-24T02:03:52;5.60;;;3.40;;
72408;SDS011;60402;48.082;11.628;2022-08-24T02:06:39;5.63;;;3.33;;
72408;SDS011;60402;48.082;11.628;2022-08-24T02:12:12;6.05;;;3.85;;
72408;SDS011;60402;48.082;11.628;2022-08-24T02:15:04;5.57;;;3.17;;
72408;SDS011;60402;48.082;11.628;2022-08-24T02:17:32;6.03;;;3.30;;
72408;SDS011;60402;48.082;11.628;2022-08-24T02:19:58;5.68;;;3.53;;
72408;SDS011;60402;48.082;11.628;2022-08-24T02:22:24;5.50;;;3.42;;
72408;SDS011;60402;48.082;11.628;2022-08-24T02:24:50;6.15;;;3.67;;
72408;SDS011;60402;48.082;11.628;2022-08-24T02:27:15;6.38;;;3.40;;
72408;SDS011;60402;48.082;11.628;2022-08-24T02:29:41;5.40;;;3.40;;
72408;SDS011;60402;48.082;11.628;2022-08-24T02:32:06;5.68;;;3.85;;
72408;SDS011;60402;48.082;11.628;2022-08-24T02:34:32;6.68;;;3.20;;
72408;SDS011;60402;48.082;11.628;2022-08-24T02:36:58;5.78;;;3.42;;
72408;SDS011;60402;48.082;11.628;2022-08-24T02:39:24;7.35;;;3.60;;
72408;SDS011;60402;48.082;11.628;2022-08-24T02:41:50;5.35;;;3.30;;
72408;SDS011;60402;48.082;11.628;2022-08-24T02:44:16;5.85;;;3.70;;
72408;SDS011;60402;48.082;11.628;2022-08-24T02:46:41;6.10;;;3.38;;
72408;SDS011;60402;48.082;11.628;2022-08-24T02:49:07;5.38;;;3.50;;
72408;SDS011;60402;48.082;11.628;2022-08-24T02:51:32;5.95;;;3.75;;
72408;SDS011;60402;48.082;11.628;2022-08-24T02:53:58;5.93;;;3.38;;
72408;SDS011;60402;48.082;11.628;2022-08-24T02:56:25;6.10;;;3.28;;
72408;SDS011;60402;48.082;11.628;2022-08-24T02:58:53;5.28;;;3.40;;
72408;SDS011;60402;48.082;11.628;2022-08-24T03:01:19;5.47;;;3.40;;
72408;SDS011;60402;48.082;11.628;2022-08-24T03:03:45;5.78;;;3.28;;
72408;SDS011;60402;48.082;11.628;2022-08-24T03:06:10;7.82;;;3.80;;
72408;SDS011;60402;48.082;11.628;2022-08-24T03:08:37;5.13;;;3.60;;
72408;SDS011;60402;48.082;11.628;2022-08-24T03:11:03;6.00;;;3.50;;
72408;SDS011;60402;48.082;11.628;2022-08-24T03:13:30;7.38;;;3.67;;
72408;SDS011;60402;48.082;11.628;2022-08-24T03:15:56;6.80;;;4.40;;
72408;SDS011;60402;48.082;11.628;2022-08-24T03:18:22;5.95;;;3.70;;
72408;SDS011;60402;48.082;11.628;2022-08-24T03:20:52;6.10;;;3.60;;
72408;SDS011;60402;48.082;11.628;2022-08-24T03:23:19;6.53;;;3.80;;
72408;SDS011;60402;48.082;11.628;2022-08-24T03:25:44;5.93;;;3.45;;
72408;SDS011;60402;48.082;11.628;2022-08-24T03:28:10;6.20;;;3.80;;
72408;SDS011;60402;48.082;11.628;2022-08-24T03:30:36;5.55;;;3.40;;
72408;SDS011;60402;48.082;11.628;2022-08-24T03:33:03;6.32;;;4.00;;
72408;SDS011;60402;48.082;11.628;2022-08-24T03:35:29;7.10;;;4.20;;
72408;SDS011;60402;48.082;11.628;2022-08-24T03:37:54;6.63;;;3.90;;
72408;SDS011;60402;48.082;11.628;2022-08-24T03:40:20;7.43;;;3.95;;
72408;SDS011;60402;48.082;11.628;2022-08-24T03:42:47;6.90;;;3.78;;
72408;SDS011;60402;48.082;11.628;2022-08-24T03:45:12;6.57;;;3.35;;
72408;SDS011;60402;48.082;11.628;2022-08-24T03:47:37;6.15;;;3.65;;
72408;SDS011;60402;48.082;11.628;2022-08-24T03:50:03;5.57;;;3.42;;
72408;SDS011;60402;48.082;11.628;2022-08-24T03:52:30;6.28;;;3.40;;
72408;SDS011;60402;48.082;11.628;2022-08-24T03:54:56;5.68;;;3.22;;
72408;SDS011;60402;48.082;11.628;2022-08-24T03:57:21;6.32;;;3.33;;
72408;SDS011;60402;48.082;11.628;2022-08-24T03:59:47;5.55;;;3.00;;
72408;SDS011;60402;48.082;11.628;2022-08-24T04:02:13;6.45;;;3.28;;
72408;SDS011;60402;48.082;11.628;2022-08-24T04:04:38;6.28;;;3.47;;
72408;SDS011;60402;48.082;11.628;2022-08-24T04:07:04;6.53;;;3.83;;
72408;SDS011;60402;48.082;11.628;2022-08-24T04:09:29;6.35;;;3.28;;
72408;SDS011;60402;48.082;11.628;2022-08-24T04:11:55;6.97;;;3.58;;
72408;SDS011;60402;48.082;11.628;2022-08-24T04:14:20;6.20;;;3.85;;
72408;SDS011;60402;48.082;11.628;2022-08-24T04:16:45;7.15;;;3.85;;
72408;SDS011;60402;48.082;11.628;2022-08-24T04:19:14;5.60;;;3.28;;
72408;SDS011;60402;48.082;11.628;2022-08-24T04:21:39;6.00;;;3.55;;
72408;SDS011;60402;48.082;11.628;2022-08-24T04:24:06;6.65;;;3.70;;
72408;SDS011;60402;48.082;11.628;2022-08-24T04:26:32;6.00;;;3.38;;
72408;SDS011;60402;48.082;11.628;2022-08-24T04:29:00;5.88;;;3.53;;
72408;SDS011;60402;48.082;11.628;2022-08-24T04:31:27;5.72;;;3.53;;
72408;SDS011;60402;48.082;11.628;2022-08-24T04:33:54;5.85;;;3.35;;
72408;SDS011;60402;48.082;11.628;2022-08-24T04:36:19;6.85;;;3.85;;
72408;SDS011;60402;48.082;11.628;2022-08-24T04:38:47;6.82;;;3.80;;
72408;SDS011;60402;48.082;11.628;2022-08-24T04:41:14;5.55;;;3.25;;
72408;SDS011;60402;48.082;11.628;2022-08-24T04:43:40;5.38;;;3.25;;
72408;SDS011;60402;48.082;11.628;2022-08-24T04:46:10;6.10;;;3.58;;
72408;SDS011;60402;48.082;11.628;2022-08-24T04:48:39;6.25;;;3.30;;
72408;SDS011;60402;48.082;11.628;2022-08-24T04:51:05;6.70;;;3.40;;
72408;SDS011;60402;48.082;11.628;2022-08-24T04:53:33;7.55;;;3.83;;
72408;SDS011;60402;48.082;11.628;2022-08-24T04:55:59;7.38;;;3.65;;
72408;SDS011;60402;48.082;11.628;2022-08-24T04:58:26;6.93;;;3.47;;
72408;SDS011;60402;48.082;11.628;2022-08-24T05:00:52;5.93;;;3.53;;
72408;SDS011;60402;48.082;11.628;2022-08-24T05:03:18;6.25;;;3.55;;
72408;SDS011;60402;48.082;11.628;2022-08-24T05:05:44;7.15;;;3.97;;
72408;SDS011;60402;48.082;11.628;2022-08-24T05:08:11;6.45;;;3.60;;
72408;SDS011;60402;48.082;11.628;2022-08-24T05:10:37;5.88;;;3.50;;
72408;SDS011;60402;48.082;11.628;2022-08-24T05:13:04;5.60;;;3.40;;
72408;SDS011;60402;48.082;11.628;2022-08-24T05:15:31;7.40;;;3.70;;
72408;SDS011;60402;48.082;11.628;2022-08-24T05:17:58;7.90;;;3.38;;
72408;SDS011;60402;48.082;11.628;2022-08-24T05:20:23;7.88;;;3.78;;
72408;SDS011;60402;48.082;11.628;2022-08-24T05:22:50;5.85;;;3.30;;
72408;SDS011;60402;48.082;11.628;2022-08-24T05:25:16;5.32;;;3.08;;
72408;SDS011;60402;48.082;11.628;2022-08-24T05:27:41;6.63;;;3.28;;
72408;SDS011;60402;48.082;11.628;2022-08-24T05:30:07;5.60;;;3.28;;
72408;SDS011;60402;48.082;11.628;2022-08-24T05:32:34;7.28;;;3.67;;
72408;SDS011;60402;48.082;11.628;2022-08-24T05:35:01;5.15;;;3.08;;
72408;SDS011;60402;48.082;11.628;2022-08-24T05:37:29;6.13;;;3.13;;
72408;SDS011;60402;48.082;11.628;2022-08-24T05:39:55;5.75;;;2.97;;
72408;SDS011;60402;48.082;11.628;2022-08-24T05:42:21;5.43;;;3.08;;
72408;SDS011;60402;48.082;11.628;2022-08-24T05:44:47;7.53;;;3.53;;
72408;SDS011;60402;48.082;11.628;2022-08-24T05:47:12;6.32;;;3.20;;
72408;SDS011;60402;48.082;11.628;2022-08-24T05:49:43;7.03;;;3.42;;
72408;SDS011;60402;48.082;11.628;2022-08-24T05:52:09;6.00;;;3.20;;
72408;SDS011;60402;48.082;11.628;2022-08-24T05:54:35;6.05;;;3.30;;
72408;SDS011;60402;48.082;11.628;2022-08-24T05:57:00;7.15;;;3.35;;
72408;SDS011;60402;48.082;11.628;2022-08-24T05:59:29;6.25;;;3.28;;
72408;SDS011;60402;48.082;11.628;2022-08-24T06:01:55;6.40;;;3.28;;
72408;SDS011;60402;48.082;11.628;2022-08-24T06:04:20;5.78;;;3.05;;
72408;SDS011;60402;48.082;11.628;2022-08-24T06:06:49;7.25;;;3.83;;
72408;SDS011;60402;48.082;11.628;2022-08-24T06:09:15;5.68;;;3.28;;
72408;SDS011;60402;48.082;11.628;2022-08-24T06:11:40;5.50;;;3.10;;
72408;SDS011;60402;48.082;11.628;2022-08-24T06:14:07;5.82;;;3.28;;
72408;SDS011;60402;48.082;11.628;2022-08-24T06:16:35;6.20;;;3.40;;
72408;SDS011;60402;48.082;11.628;2022-08-24T06:19:09;6.57;;;3.10;;
72408;SDS011;60402;48.082;11.628;2022-08-24T06:21:37;4.93;;;3.00;;
72408;SDS011;60402;48.082;11.628;2022-08-24T06:24:04;5.82;;;3.00;;
72408;SDS011;60402;48.082;11.628;2022-08-24T06:26:29;5.50;;;3.28;;
72408;SDS011;60402;48.082;11.628;2022-08-24T06:29:14;4.35;;;2.40;;
72408;SDS011;60402;48.082;11.628;2022-08-24T06:31:41;3.90;;;2.38;;
72408;SDS011;60402;48.082;11.628;2022-08-24T06:34:11;4.60;;;2.70;;
72408;SDS011;60402;48.082;11.628;2022-08-24T06:36:38;5.15;;;2.90;;
72408;SDS011;60402;48.082;11.628;2022-08-24T06:39:04;5.43;;;3.00;;
72408;SDS011;60402;48.082;11.628;2022-08-24T06:41:30;6.63;;;2.55;;
72408;SDS011;60402;48.082;11.628;2022-08-24T06:43:56;4.63;;;2.50;;
72408;SDS011;60402;48.082;11.628;2022-08-24T06:46:24;5.43;;;2.92;;
72408;SDS011;60402;48.082;11.628;2022-08-24T06:48:51;4.70;;;2.45;;
72408;SDS011;60402;48.082;11.628;2022-08-24T06:51:18;7.00;;;2.95;;
72408;SDS011;60402;48.082;11.628;2022-08-24T06:53:44;5.95;;;2.40;;
72408;SDS011;60402;48.082;11.628;2022-08-24T06:56:10;5.70;;;3.00;;
72408;SDS011;60402;48.082;11.628;2022-08-24T06:58:36;6.15;;;2.67;;
72408;SDS011;60402;48.082;11.628;2022-08-24T07:01:09;7.45;;;3.05;;
72408;SDS011;60402;48.082;11.628;2022-08-24T07:03:36;6.05;;;2.63;;
72408;SDS011;60402;48.082;11.628;2022-08-24T07:06:02;4.35;;;2.58;;
72408;SDS011;60402;48.082;11.628;2022-08-24T07:08:29;4.18;;;2.30;;
72408;SDS011;60402;48.082;11.628;2022-08-24T07:10:55;4.53;;;2.40;;
72408;SDS011;60402;48.082;11.628;2022-08-24T07:13:20;5.00;;;2.38;;
72408;SDS011;60402;48.082;11.628;2022-08-24T07:15:45;4.43;;;2.22;;
72408;SDS011;60402;48.082;11.628;2022-08-24T07:18:12;3.97;;;2.10;;
72408;SDS011;60402;48.082;11.628;2022-08-24T07:20:41;4.75;;;2.30;;
72408;SDS011;60402;48.082;11.628;2022-08-24T07:23:06;3.00;;;1.77;;
72408;SDS011;60402;48.082;11.628;2022-08-24T07:25:33;4.53;;;2.08;;
72408;SDS011;60402;48.082;11.628;2022-08-24T07:27:58;5.18;;;2.28;;
72408;SDS011;60402;48.082;11.628;2022-08-24T07:30:25;3.42;;;1.92;;
72408;SDS011;60402;48.082;11.628;2022-08-24T07:32:52;3.70;;;1.90;;
72408;SDS011;60402;48.082;11.628;2022-08-24T07:35:18;3.78;;;2.22;;
72408;SDS011;60402;48.082;11.628;2022-08-24T07:37:43;4.80;;;1.83;;
72408;SDS011;60402;48.082;11.628;2022-08-24T07:40:09;3.88;;;2.25;;
72408;SDS011;60402;48.082;11.628;2022-08-24T07:42:35;4.07;;;1.90;;
72408;SDS011;60402;48.082;11.628;2022-08-24T07:45:15;4.43;;;2.00;;
72408;SDS011;60402;48.082;11.628;2022-08-24T07:47:40;3.67;;;1.90;;
72408;SDS011;60402;48.082;11.628;2022-08-24T07:50:06;3.45;;;1.73;;
72408;SDS011;60402;48.082;11.628;2022-08-24T07:52:32;3.53;;;1.90;;
72408;SDS011;60402;48.082;11.628;2022-08-24T07:54:57;3.20;;;1.70;;
72408;SDS011;60402;48.082;11.628;2022-08-24T07:57:22;4.80;;;1.98;;
72408;SDS011;60402;48.082;11.628;2022-08-24T07:59:48;2.83;;;1.50;;
72408;SDS011;60402;48.082;11.628;2022-08-24T08:02:14;5.05;;;2.10;;
72408;SDS011;60402;48.082;11.628;2022-08-24T08:04:41;4.45;;;2.08;;
72408;SDS011;60402;48.082;11.628;2022-08-24T08:07:06;4.45;;;1.95;;
72408;SDS011;60402;48.082;11.628;2022-08-24T08:09:35;3.95;;;1.75;;
72408;SDS011;60402;48.082;11.628;2022-08-24T08:12:01;3.15;;;1.92;;
72408;SDS011;60402;48.082;11.628;2022-08-24T08:14:26;3.28;;;1.90;;
72408;SDS011;60402;48.082;11.628;2022-08-24T08:16:52;4.20;;;1.92;;
72408;SDS011;60402;48.082;11.628;2022-08-24T08:19:18;3.10;;;1.73;;
72408;SDS011;60402;48.082;11.628;2022-08-24T08:21:47;4.18;;;1.98;;
72408;SDS011;60402;48.082;11.628;2022-08-24T08:24:33;2.88;;;1.80;;
72408;SDS011;60402;48.082;11.628;2022-08-24T08:29:26;4.75;;;1.75;;
72408;SDS011;60402;48.082;11.628;2022-08-24T08:31:52;3.15;;;1.80;;
72408;SDS011;60402;48.082;11.628;2022-08-24T08:34:18;4.72;;;2.00;;
72408;SDS011;60402;48.082;11.628;2022-08-24T08:36:44;3.13;;;1.58;;
72408;SDS011;60402;48.082;11.628;2022-08-24T08:39:10;2.65;;;1.70;;
72408;SDS011;60402;48.082;11.628;2022-08-24T09:04:03;4.63;;;2.17;;
72408;SDS011;60402;48.082;11.628;2022-08-24T09:06:41;4.05;;;2.10;;
72408;SDS011;60402;48.082;11.628;2022-08-24T09:09:27;3.35;;;1.90;;
72408;SDS011;60402;48.082;11.628;2022-08-24T09:23:35;4.53;;;2.80;;
72408;SDS011;60402;48.082;11.628;2022-08-24T09:29:57;4.20;;;2.00;;
72408;SDS011;60402;48.082;11.628;2022-08-24T09:34:32;4.38;;;2.20;;
72408;SDS011;60402;48.082;11.628;2022-08-24T09:48:34;4.90;;;2.40;;
72408;SDS011;60402;48.082;11.628;2022-08-24T09:54:35;4.15;;;2.08;;
72408;SDS011;60402;48.082;11.628;2022-08-24T09:59:49;4.22;;;2.22;;
72408;SDS011;60402;48.082;11.628;2022-08-24T10:06:06;5.57;;;2.35;;
72408;SDS011;60402;48.082;11.628;2022-08-24T10:19:47;6.10;;;2.15;;
72408;SDS011;60402;48.082;11.628;2022-08-24T10:25:09;4.47;;;2.28;;
72408;SDS011;60402;48.082;11.628;2022-08-24T10:30:26;5.50;;;2.28;;
72408;SDS011;60402;48.082;11.628;2022-08-24T10:33:26;3.45;;;1.90;;
72408;SDS011;60402;48.082;11.628;2022-08-24T10:38:47;4.82;;;2.28;;
72408;SDS011;60402;48.082;11.628;2022-08-24T10:47:19;4.28;;;2.05;;
72408;SDS011;60402;48.082;11.628;2022-08-24T10:55:24;5.13;;;2.70;;
72408;SDS011;60402;48.082;11.628;2022-08-24T11:01:11;3.13;;;2.10;;
72408;SDS011;60402;48.082;11.628;2022-08-24T11:06:25;4.60;;;2.30;;
72408;SDS011;60402;48.082;11.628;2022-08-24T11:09:05;3.90;;;2.00;;
72408;SDS011;60402;48.082;11.628;2022-08-24T11:14:07;3.85;;;2.20;;
72408;SDS011;60402;48.082;11.628;2022-08-24T11:16:47;3.95;;;2.28;;
72408;SDS011;60402;48.082;11.628;2022-08-24T11:19:13;6.18;;;2.38;;
72408;SDS011;60402;48.082;11.628;2022-08-24T11:21:56;4.47;;;2.20;;
72408;SDS011;60402;48.082;11.628;2022-08-24T11:24:47;5.65;;;2.35;;
72408;SDS011;60402;48.082;11.628;2022-08-24T11:32:32;3.83;;;2.30;;
72408;SDS011;60402;48.082;11.628;2022-08-24T11:37:45;5.80;;;2.30;;
72408;SDS011;60402;48.082;11.628;2022-08-24T11:40:12;4.38;;;2.17;;
72408;SDS011;60402;48.082;11.628;2022-08-24T11:45:42;4.50;;;2.22;;
72408;SDS011;60402;48.082;11.628;2022-08-24T11:51:33;5.60;;;2.47;;
72408;SDS011;60402;48.082;11.628;2022-08-24T12:05:16;3.65;;;1.83;;
72408;SDS011;60402;48.082;11.628;2022-08-24T12:10:48;3.50;;;1.98;;
72408;SDS011;60402;48.082;11.628;2022-08-24T12:16:26;4.20;;;2.00;;
72408;SDS011;60402;48.082;11.628;2022-08-24T12:19:05;3.95;;;2.10;;
72408;SDS011;60402;48.082;11.628;2022-08-24T12:21:38;3.33;;;1.88;;
72408;SDS011;60402;48.082;11.628;2022-08-24T12:24:15;4.30;;;2.08;;
72408;SDS011;60402;48.082;11.628;2022-08-24T12:26:48;4.20;;;2.25;;
72408;SDS011;60402;48.082;11.628;2022-08-24T12:31:57;4.43;;;1.90;;
72408;SDS011;60402;48.082;11.628;2022-08-24T12:34:56;3.88;;;2.10;;
72408;SDS011;60402;48.082;11.628;2022-08-24T12:37:28;3.22;;;1.65;;
72408;SDS011;60402;48.082;11.628;2022-08-24T12:39:57;2.70;;;1.60;;
72408;SDS011;60402;48.082;11.628;2022-08-24T12:42:38;3.97;;;1.90;;
72408;SDS011;60402;48.082;11.628;2022-08-24T12:45:08;5.57;;;2.10;;
72408;SDS011;60402;48.082;11.628;2022-08-24T13:00:25;4.63;;;2.20;;
72408;SDS011;60402;48.082;11.628;2022-08-24T13:03:04;3.70;;;2.13;;
72408;SDS011;60402;48.082;11.628;2022-08-24T13:05:42;4.47;;;2.10;;
72408;SDS011;60402;48.082;11.628;2022-08-24T13:08:12;5.07;;;2.30;;
72408;SDS011;60402;48.082;11.628;2022-08-24T13:10:50;3.65;;;2.05;;
72408;SDS011;60402;48.082;11.628;2022-08-24T13:13:22;3.90;;;2.17;;
72408;SDS011;60402;48.082;11.628;2022-08-24T13:16:06;4.07;;;2.10;;
72408;SDS011;60402;48.082;11.628;2022-08-24T13:18:45;3.53;;;2.08;;
72408;SDS011;60402;48.082;11.628;2022-08-24T13:21:15;4.80;;;2.10;;
72408;SDS011;60402;48.082;11.628;2022-08-24T13:26:54;3.33;;;1.92;;
72408;SDS011;60402;48.082;11.628;2022-08-24T13:29:23;4.47;;;2.20;;
72408;SDS011;60402;48.082;11.628;2022-08-24T13:31:52;4.18;;;1.90;;
72408;SDS011;60402;48.082;11.628;2022-08-24T13:37:04;3.63;;;1.90;;
72408;SDS011;60402;48.082;11.628;2022-08-24T13:42:53;4.80;;;1.85;;
72408;SDS011;60402;48.082;11.628;2022-08-24T13:45:34;4.35;;;2.05;;
72408;SDS011;60402;48.082;11.628;2022-08-24T13:51:34;4.32;;;1.98;;
72408;SDS011;60402;48.082;11.628;2022-08-24T14:04:50;4.90;;;2.13;;
72408;SDS011;60402;48.082;11.628;2022-08-24T14:07:29;3.28;;;2.03;;
72408;SDS011;60402;48.082;11.628;2022-08-24T14:10:10;3.33;;;1.80;;
72408;SDS011;60402;48.082;11.628;2022-08-24T14:18:42;4.30;;;1.70;;
72408;SDS011;60402;48.082;11.628;2022-08-24T14:21:17;3.40;;;1.80;;
72408;SDS011;60402;48.082;11.628;2022-08-24T14:23:53;3.13;;;1.48;;
72408;SDS011;60402;48.082;11.628;2022-08-24T14:34:27;4.30;;;1.80;;
72408;SDS011;60402;48.082;11.628;2022-08-24T14:46:12;3.42;;;1.75;;
72408;SDS011;60402;48.082;11.628;2022-08-24T14:48:47;4.38;;;2.05;;
72408;SDS011;60402;48.082;11.628;2022-08-24T15:11:21;4.18;;;1.83;;
72408;SDS011;60402;48.082;11.628;2022-08-24T15:16:20;3.58;;;1.80;;
72408;SDS011;60402;48.082;11.628;2022-08-24T15:18:56;3.75;;;1.45;;
72408;SDS011;60402;48.082;11.628;2022-08-24T15:21:54;3.35;;;1.73;;
72408;SDS011;60402;48.082;11.628;2022-08-24T15:29:57;3.25;;;1.77;;
72408;SDS011;60402;48.082;11.628;2022-08-24T15:32:25;3.47;;;1.92;;
72408;SDS011;60402;48.082;11.628;2022-08-24T15:35:05;3.90;;;1.67;;
72408;SDS011;60402;48.082;11.628;2022-08-24T15:37:34;3.97;;;1.60;;
72408;SDS011;60402;48.082;11.628;2022-08-24T15:40:03;2.83;;;1.83;;
72408;SDS011;60402;48.082;11.628;2022-08-24T15:42:39;4.28;;;1.92;;
72408;SDS011;60402;48.082;11.628;2022-08-24T15:45:05;3.92;;;1.90;;
72408;SDS011;60402;48.082;11.628;2022-08-24T15:47:35;2.72;;;1.60;;
72408;SDS011;60402;48.082;11.628;2022-08-24T15:50:05;3.03;;;1.40;;
72408;SDS011;60402;48.082;11.628;2022-08-24T15:55:38;3.05;;;1.60;;
72408;SDS011;60402;48.082;11.628;2022-08-24T15:58:17;5.57;;;1.73;;
72408;SDS011;60402;48.082;11.628;2022-08-24T16:00:59;3.35;;;1.60;;
72408;SDS011;60402;48.082;11.628;2022-08-24T16:03:58;4.53;;;2.00;;
72408;SDS011;60402;48.082;11.628;2022-08-24T16:11:48;3.40;;;1.70;;
72408;SDS011;60402;48.082;11.628;2022-08-24T16:14:36;3.63;;;1.70;;
72408;SDS011;60402;48.082;11.628;2022-08-24T16:19:53;3.92;;;1.80;;
72408;SDS011;60402;48.082;11.628;2022-08-24T16:22:47;3.92;;;1.70;;
72408;SDS011;60402;48.082;11.628;2022-08-24T16:25:31;3.13;;;1.50;;
72408;SDS011;60402;48.082;11.628;2022-08-24T16:28:06;6.28;;;1.75;;
72408;SDS011;60402;48.082;11.628;2022-08-24T16:36:00;4.93;;;1.80;;
72408;SDS011;60402;48.082;11.628;2022-08-24T16:40:56;4.05;;;1.60;;
72408;SDS011;60402;48.082;11.628;2022-08-24T16:43:23;2.85;;;1.33;;
72408;SDS011;60402;48.082;11.628;2022-08-24T16:45:48;2.67;;;1.30;;
72408;SDS011;60402;48.082;11.628;2022-08-24T16:48:14;2.60;;;1.42;;
72408;SDS011;60402;48.082;11.628;2022-08-24T16:50:39;3.67;;;1.50;;
72408;SDS011;60402;48.082;11.628;2022-08-24T16:53:05;2.40;;;1.33;;
72408;SDS011;60402;48.082;11.628;2022-08-24T16:55:30;3.63;;;1.55;;
72408;SDS011;60402;48.082;11.628;2022-08-24T16:57:56;3.97;;;1.63;;
72408;SDS011;60402;48.082;11.628;2022-08-24T17:00:21;4.18;;;1.50;;
72408;SDS011;60402;48.082;11.628;2022-08-24T17:02:47;3.17;;;1.65;;
72408;SDS011;60402;48.082;11.628;2022-08-24T17:05:16;2.80;;;1.50;;
72408;SDS011;60402;48.082;11.628;2022-08-24T17:07:42;4.80;;;1.70;;
72408;SDS011;60402;48.082;11.628;2022-08-24T17:10:08;3.13;;;1.40;;
72408;SDS011;60402;48.082;11.628;2022-08-24T17:15:05;2.78;;;1.40;;
72408;SDS011;60402;48.082;11.628;2022-08-24T17:17:33;3.15;;;1.33;;
72408;SDS011;60402;48.082;11.628;2022-08-24T17:19:59;4.38;;;1.55;;
72408;SDS011;60402;48.082;11.628;2022-08-24T17:22:28;4.03;;;1.60;;
72408;SDS011;60402;48.082;11.628;2022-08-24T17:24:53;4.70;;;1.52;;
72408;SDS011;60402;48.082;11.628;2022-08-24T17:27:20;3.05;;;1.50;;
72408;SDS011;60402;48.082;11.628;2022-08-24T17:29:50;4.45;;;1.38;;
72408;SDS011;60402;48.082;11.628;2022-08-24T17:32:15;3.45;;;1.50;;
72408;SDS011;60402;48.082;11.628;2022-08-24T17:34:41;2.90;;;1.45;;
72408;SDS011;60402;48.082;11.628;2022-08-24T17:37:06;3.03;;;1.50;;
72408;SDS011;60402;48.082;11.628;2022-08-24T17:39:33;3.58;;;1.50;;
72408;SDS011;60402;48.082;11.628;2022-08-24T17:41:58;2.60;;;1.30;;
72408;SDS011;60402;48.082;11.628;2022-08-24T17:44:26;4.15;;;1.65;;
72408;SDS011;60402;48.082;11.628;2022-08-24T17:46:54;4.97;;;1.67;;
72408;SDS011;60402;48.082;11.628;2022-08-24T17:51:47;3.72;;;1.63;;
72408;SDS011;60402;48.082;11.628;2022-08-24T17:54:13;2.97;;;1.35;;
72408;SDS011;60402;48.082;11.628;2022-08-24T17:56:41;3.13;;;1.30;;
72408;SDS011;60402;48.082;11.628;2022-08-24T17:59:09;4.40;;;1.35;;
72408;SDS011;60402;48.082;11.628;2022-08-24T18:01:52;4.78;;;1.38;;
72408;SDS011;60402;48.082;11.628;2022-08-24T18:04:19;3.13;;;1.17;;
72408;SDS011;60402;48.082;11.628;2022-08-24T18:06:47;4.30;;;1.70;;
72408;SDS011;60402;48.082;11.628;2022-08-24T18:09:15;3.90;;;1.50;;
72408;SDS011;60402;48.082;11.628;2022-08-24T18:11:57;2.90;;;1.38;;
72408;SDS011;60402;48.082;11.628;2022-08-24T18:14:24;3.63;;;1.33;;
72408;SDS011;60402;48.082;11.628;2022-08-24T18:16:51;3.35;;;1.67;;
72408;SDS011;60402;48.082;11.628;2022-08-24T18:19:17;2.92;;;1.40;;
72408;SDS011;60402;48.082;11.628;2022-08-24T18:21:43;3.30;;;1.38;;
72408;SDS011;60402;48.082;11.628;2022-08-24T18:24:09;3.67;;;1.52;;
72408;SDS011;60402;48.082;11.628;2022-08-24T18:26:37;3.00;;;1.42;;
72408;SDS011;60402;48.082;11.628;2022-08-24T18:29:07;2.92;;;1.38;;
72408;SDS011;60402;48.082;11.628;2022-08-24T18:31:36;3.40;;;1.40;;
72408;SDS011;60402;48.082;11.628;2022-08-24T18:34:02;3.63;;;1.40;;
72408;SDS011;60402;48.082;11.628;2022-08-24T18:36:27;3.33;;;1.52;;
72408;SDS011;60402;48.082;11.628;2022-08-24T18:38:53;3.05;;;1.52;;
72408;SDS011;60402;48.082;11.628;2022-08-24T18:41:18;3.90;;;1.50;;
72408;SDS011;60402;48.082;11.628;2022-08-24T18:43:44;4.45;;;1.77;;
72408;SDS011;60402;48.082;11.628;2022-08-24T18:46:10;3.22;;;1.38;;
72408;SDS011;60402;48.082;11.628;2022-08-24T18:48:36;4.38;;;1.60;;
72408;SDS011;60402;48.082;11.628;2022-08-24T18:51:01;2.13;;;1.23;;
72408;SDS011;60402;48.082;11.628;2022-08-24T18:53:27;3.80;;;1.83;;
72408;SDS011;60402;48.082;11.628;2022-08-24T18:55:53;2.90;;;1.45;;
72408;SDS011;60402;48.082;11.628;2022-08-24T18:58:18;3.22;;;1.60;;
72408;SDS011;60402;48.082;11.628;2022-08-24T19:00:44;4.22;;;1.60;;
72408;SDS011;60402;48.082;11.628;2022-08-24T19:03:10;3.75;;;1.58;;
72408;SDS011;60402;48.082;11.628;2022-08-24T19:05:38;3.75;;;1.45;;
72408;SDS011;60402;48.082;11.628;2022-08-24T19:08:04;3.50;;;1.50;;